createdAt,value
2022-10-12T00:01:16.230Z,11.14
2022-10-12T00:03:42.747Z,11.43
2022-10-12T00:06:19.806Z,11.53
2022-10-12T00:08:47.322Z,11.45
2022-10-12T00:11:17.462Z,11.59
2022-10-12T00:13:43.882Z,11.46
2022-10-12T00:16:12.768Z,10.66
2022-10-12T00:18:39.787Z,10.31
2022-10-12T00:21:10.266Z,11.15
2022-10-12T00:23:38.204Z,10.75
2022-10-12T00:26:07.670Z,10.39
2022-10-12T00:28:34.916Z,10.39
2022-10-12T00:31:02.073Z,10.83
2022-10-12T00:33:29.311Z,10.40
2022-10-12T00:35:55.764Z,10.49
2022-10-12T00:38:22.939Z,10.24
2022-10-12T00:40:49.662Z,10.84
2022-10-12T00:43:35.919Z,10.80
2022-10-12T00:46:09.818Z,10.84
2022-10-12T00:48:36.900Z,10.93
2022-10-12T00:51:04.419Z,11.12
2022-10-12T00:53:37.587Z,10.53
2022-10-12T00:56:10.874Z,10.50
2022-10-12T00:58:37.673Z,10.38
2022-10-12T01:01:05.706Z,11.16
2022-10-12T01:03:32.459Z,10.63
2022-10-12T01:06:00.268Z,11.18
2022-10-12T01:08:28.919Z,11.14
2022-10-12T01:10:55.459Z,10.23
2022-10-12T01:13:21.952Z,10.70
2022-10-12T01:16:11.467Z,10.12
2022-10-12T01:18:50.305Z,11.05
2022-10-12T01:21:23.404Z,10.87
2022-10-12T01:24:23.571Z,11.03
2022-10-12T01:26:53.119Z,10.99
2022-10-12T01:29:49.091Z,11.00
2022-10-12T01:32:25.117Z,10.74
2022-10-12T01:35:25.432Z,10.89
2022-10-12T01:38:27.609Z,10.65
2022-10-12T01:41:36.191Z,10.57
2022-10-12T01:44:02.861Z,10.37
2022-10-12T01:46:29.130Z,10.76
2022-10-12T01:48:58.539Z,10.65
2022-10-12T01:51:59.470Z,10.06
2022-10-12T01:54:46.833Z,9.98
2022-10-12T01:57:36.207Z,10.20
2022-10-12T02:00:21.002Z,10.55
2022-10-12T02:02:58.439Z,10.73
2022-10-12T02:05:38.406Z,10.66
2022-10-12T02:08:14.035Z,10.58
2022-10-12T02:10:50.483Z,10.31
2022-10-12T02:13:20.054Z,10.45
2022-10-12T02:15:48.627Z,10.54
2022-10-12T02:18:18.630Z,10.56
2022-10-12T02:20:51.087Z,10.52
2022-10-12T02:23:19.122Z,10.49
2022-10-12T02:25:47.029Z,9.89
2022-10-12T02:28:17.770Z,10.63
2022-10-12T02:30:50.433Z,10.39
2022-10-12T02:33:35.441Z,9.88
2022-10-12T02:36:10.270Z,10.39
2022-10-12T02:38:46.554Z,10.47
2022-10-12T02:41:19.770Z,9.47
2022-10-12T02:43:56.574Z,10.30
2022-10-12T02:46:26.068Z,10.47
2022-10-12T02:48:54.965Z,10.31
2022-10-12T02:51:23.619Z,10.21
2022-10-12T02:53:50.677Z,10.23
2022-10-12T02:56:17.061Z,9.99
2022-10-12T02:58:45.688Z,9.84
2022-10-12T03:01:13.578Z,10.15
2022-10-12T03:03:40.657Z,9.00
2022-10-12T03:06:07.490Z,9.85
2022-10-12T03:08:33.923Z,9.29
2022-10-12T03:11:07.806Z,8.52
2022-10-12T03:13:34.521Z,9.53
2022-10-12T03:16:05.956Z,9.18
2022-10-12T03:18:32.782Z,8.01
2022-10-12T03:20:59.108Z,9.37
2022-10-12T03:23:26.193Z,9.70
2022-10-12T03:25:52.642Z,9.77
2022-10-12T03:28:19.442Z,9.92
2022-10-12T03:30:45.989Z,9.60
2022-10-12T03:33:13.078Z,9.42
2022-10-12T03:35:39.821Z,9.58
2022-10-12T03:38:06.580Z,9.65
2022-10-12T03:40:32.962Z,9.76
2022-10-12T03:42:59.350Z,8.93
2022-10-12T03:45:25.654Z,9.57
2022-10-12T03:47:51.993Z,9.52
2022-10-12T03:50:18.417Z,9.27
2022-10-12T03:52:44.772Z,9.83
2022-10-12T03:55:13.956Z,9.71
2022-10-12T03:57:40.895Z,9.95
2022-10-12T04:00:08.218Z,9.85
2022-10-12T04:02:34.710Z,8.85
2022-10-12T04:05:01.115Z,9.74
2022-10-12T04:07:27.592Z,9.74
2022-10-12T04:09:54.105Z,9.70
2022-10-12T04:12:20.561Z,9.74
2022-10-12T04:14:46.929Z,9.65
2022-10-12T04:17:16.307Z,9.78
2022-10-12T04:19:43.385Z,9.96
2022-10-12T04:22:09.777Z,9.49
2022-10-12T04:24:36.466Z,9.50
2022-10-12T04:27:03.282Z,9.33
2022-10-12T04:29:29.703Z,9.38
2022-10-12T04:31:56.342Z,8.89
2022-10-12T04:34:23.084Z,9.47
2022-10-12T04:36:50.429Z,9.32
2022-10-12T04:39:32.412Z,8.99
2022-10-12T04:41:58.796Z,9.14
2022-10-12T04:44:29.717Z,9.54
2022-10-12T04:46:58.706Z,8.89
2022-10-12T04:49:25.031Z,9.21
2022-10-12T04:51:51.350Z,8.93
2022-10-12T04:54:17.763Z,9.69
2022-10-12T04:56:47.717Z,9.53
2022-10-12T04:59:14.611Z,9.55
2022-10-12T05:01:41.036Z,9.63
2022-10-12T05:04:07.443Z,9.58
2022-10-12T05:06:33.818Z,9.58
2022-10-12T05:09:00.134Z,9.66
2022-10-12T05:11:26.478Z,9.69
2022-10-12T05:13:52.825Z,9.50
2022-10-12T05:16:19.160Z,8.50
2022-10-12T05:18:45.473Z,9.17
2022-10-12T05:21:11.818Z,8.80
2022-10-12T05:23:38.136Z,8.74
2022-10-12T05:26:04.567Z,8.72
2022-10-12T05:28:31.021Z,8.19
2022-10-12T05:30:57.395Z,8.22
2022-10-12T05:33:23.749Z,9.22
2022-10-12T05:35:56.101Z,9.51
2022-10-12T05:38:22.885Z,8.60
2022-10-12T05:40:49.263Z,8.82
2022-10-12T05:43:15.609Z,8.52
2022-10-12T05:45:43.138Z,8.47
2022-10-12T05:48:09.511Z,8.94
2022-10-12T05:50:35.855Z,9.11
2022-10-12T05:53:02.205Z,9.47
2022-10-12T05:55:28.622Z,8.25
2022-10-12T05:57:55.115Z,8.15
2022-10-12T06:00:21.996Z,9.09
2022-10-12T06:02:48.474Z,8.83
2022-10-12T06:05:15.168Z,8.77
2022-10-12T06:07:41.685Z,8.67
2022-10-12T06:10:08.922Z,8.80
2022-10-12T06:12:35.501Z,9.09
2022-10-12T06:15:02.050Z,9.44
2022-10-12T06:17:28.383Z,9.27
2022-10-12T06:19:54.735Z,9.37
2022-10-12T06:22:25.048Z,8.77
2022-10-12T06:24:54.442Z,9.29
2022-10-12T06:27:20.775Z,8.50
2022-10-12T06:29:47.126Z,8.98
2022-10-12T06:32:13.608Z,9.14
2022-10-12T06:34:39.960Z,8.86
2022-10-12T06:37:06.293Z,8.75
2022-10-12T06:39:32.610Z,8.77
2022-10-12T06:41:59.493Z,8.94
2022-10-12T06:44:26.157Z,8.66
2022-10-12T06:46:53.421Z,9.28
2022-10-12T06:49:19.914Z,9.44
2022-10-12T06:51:46.298Z,9.64
2022-10-12T06:54:12.760Z,9.50
2022-10-12T06:56:39.607Z,8.91
2022-10-12T06:59:06.328Z,9.57
2022-10-12T07:01:32.882Z,9.17
2022-10-12T07:04:00.908Z,9.71
2022-10-12T07:06:27.479Z,9.60
2022-10-12T07:08:54.582Z,9.83
2022-10-12T07:11:21.308Z,9.52
2022-10-12T07:13:47.671Z,9.22
2022-10-12T07:16:14.041Z,9.78
2022-10-12T07:18:40.490Z,9.46
2022-10-12T07:21:06.950Z,9.60
2022-10-12T07:23:34.508Z,9.70
2022-10-12T07:26:01.604Z,10.40
2022-10-12T07:28:31.570Z,9.95
2022-10-12T07:31:20.896Z,10.68
2022-10-12T07:33:47.225Z,9.93
2022-10-12T07:36:15.613Z,10.65
2022-10-12T07:38:45.992Z,10.91
2022-10-12T07:41:13.114Z,11.14
2022-10-12T07:43:39.424Z,11.32
2022-10-12T07:46:06.325Z,10.77
2022-10-12T07:48:33.331Z,11.55
2022-10-12T07:51:07.449Z,11.36
2022-10-12T07:53:35.095Z,11.53
2022-10-12T07:56:02.523Z,11.53
2022-10-12T07:58:29.202Z,11.56
2022-10-12T08:00:55.529Z,11.34
2022-10-12T08:03:21.991Z,11.77
2022-10-12T08:05:48.862Z,11.26
2022-10-12T08:08:15.351Z,11.86
2022-10-12T08:10:41.780Z,11.98
2022-10-12T08:13:08.137Z,11.96
2022-10-12T08:15:35.869Z,11.42
2022-10-12T08:18:02.185Z,11.59
2022-10-12T08:20:28.556Z,12.14
2022-10-12T08:22:55.177Z,12.31
2022-10-12T08:25:21.552Z,12.37
2022-10-12T08:27:48.429Z,12.48
2022-10-12T08:30:14.922Z,12.41
2022-10-12T08:32:41.404Z,11.94
2022-10-12T08:35:07.775Z,12.45
2022-10-12T08:37:34.125Z,12.56
2022-10-12T08:42:59.335Z,12.70
2022-10-12T08:46:01.828Z,12.58
2022-10-12T08:48:34.177Z,12.72
2022-10-12T08:51:05.294Z,12.32
2022-10-12T08:53:55.971Z,12.82
2022-10-12T08:56:24.212Z,12.69
2022-10-12T08:58:52.948Z,12.36
2022-10-12T09:01:37.447Z,12.77
2022-10-12T09:04:28.422Z,13.09
2022-10-12T09:07:16.906Z,13.18
2022-10-12T09:10:15.638Z,13.23
2022-10-12T09:12:50.955Z,13.64
2022-10-12T09:15:30.095Z,13.62
2022-10-12T09:17:58.304Z,13.26
2022-10-12T09:23:58.148Z,13.95
2022-10-12T09:26:37.015Z,13.95
2022-10-12T09:29:23.384Z,13.88
2022-10-12T09:31:55.933Z,14.36
2022-10-12T09:34:24.495Z,14.57
2022-10-12T09:36:51.130Z,14.01
2022-10-12T09:39:23.481Z,14.46
2022-10-12T09:41:53.257Z,14.82
2022-10-12T09:44:36.214Z,14.37
2022-10-12T09:47:06.166Z,14.84
2022-10-12T09:49:46.992Z,15.25
2022-10-12T09:52:15.459Z,14.60
2022-10-12T09:54:48.433Z,14.90
2022-10-12T09:57:36.764Z,14.98
2022-10-12T10:00:35.833Z,14.82
2022-10-12T10:03:02.792Z,15.33
2022-10-12T10:05:31.650Z,15.90
2022-10-12T10:08:23.624Z,16.15
2022-10-12T10:10:53.956Z,16.14
2022-10-12T10:13:37.306Z,16.27
2022-10-12T10:16:09.373Z,16.06
2022-10-12T10:19:11.460Z,17.07
2022-10-12T10:21:43.684Z,18.01
2022-10-12T10:24:43.474Z,21.03
2022-10-12T10:27:34.165Z,21.73
2022-10-12T10:30:29.970Z,23.34
2022-10-12T10:33:21.635Z,23.40
2022-10-12T10:35:58.568Z,22.53
2022-10-12T10:38:25.279Z,21.50
2022-10-12T10:40:54.411Z,22.02
2022-10-12T10:43:25.877Z,21.59
2022-10-12T10:45:56.639Z,21.26
2022-10-12T10:48:27.808Z,20.96
2022-10-12T10:51:00.356Z,19.67
2022-10-12T10:53:31.251Z,19.52
2022-10-12T10:56:26.109Z,19.51
2022-10-12T10:58:59.833Z,19.05
2022-10-12T11:01:35.957Z,19.27
2022-10-12T11:04:19.122Z,18.51
2022-10-12T11:06:52.020Z,18.87
2022-10-12T11:09:23.396Z,17.98
2022-10-12T11:11:57.418Z,18.98
2022-10-12T11:14:30.997Z,18.86
2022-10-12T11:17:07.379Z,18.98
2022-10-12T11:19:42.196Z,18.22
2022-10-12T11:22:20.266Z,18.14
2022-10-12T11:25:09.296Z,18.37
2022-10-12T11:27:40.647Z,18.44
2022-10-12T11:30:16.826Z,19.06
2022-10-12T11:33:05.835Z,19.11
2022-10-12T11:35:36.321Z,19.18
2022-10-12T11:38:26.978Z,19.47
2022-10-12T11:41:19.116Z,19.45
2022-10-12T11:44:03.818Z,19.55
2022-10-12T11:47:03.044Z,19.42
2022-10-12T11:49:49.370Z,19.25
2022-10-12T11:52:17.479Z,19.31
2022-10-12T11:54:53.689Z,19.11
2022-10-12T11:57:26.934Z,18.75
2022-10-12T12:00:01.397Z,18.92
2022-10-12T12:02:37.818Z,19.23
2022-10-12T12:05:05.357Z,18.92
2022-10-12T12:07:49.380Z,19.29
2022-10-12T12:10:27.951Z,19.35
2022-10-12T12:13:08.006Z,19.46
2022-10-12T12:15:34.377Z,19.34
2022-10-12T12:18:23.403Z,19.36
2022-10-12T12:20:49.697Z,19.67
2022-10-12T12:23:27.074Z,19.67
2022-10-12T12:26:16.278Z,19.82
2022-10-12T12:28:46.406Z,19.88
2022-10-12T12:32:13.359Z,20.10
2022-10-12T12:34:54.458Z,19.77
2022-10-12T12:37:26.700Z,20.34
2022-10-12T12:39:56.530Z,21.12
2022-10-12T12:42:32.019Z,21.42
2022-10-12T12:45:38.891Z,20.61
2022-10-12T12:48:09.696Z,21.23
2022-10-12T12:50:38.784Z,21.02
2022-10-12T12:53:15.920Z,20.60
2022-10-12T12:56:04.621Z,20.38
2022-10-12T12:58:58.009Z,20.19
2022-10-12T13:01:44.559Z,19.88
2022-10-12T13:04:43.321Z,20.52
2022-10-12T13:07:50.155Z,20.70
2022-10-12T13:10:35.127Z,20.23
2022-10-12T13:13:13.617Z,20.86
2022-10-12T13:16:57.139Z,20.48
2022-10-12T13:19:19.850Z,20.40
2022-10-12T13:21:51.444Z,20.27
2022-10-12T13:24:40.744Z,20.27
2022-10-12T13:27:37.941Z,20.06
2022-10-12T13:30:10.374Z,20.18
2022-10-12T13:32:49.890Z,20.04
2022-10-12T13:36:02.287Z,20.33
2022-10-12T13:38:30.678Z,20.35
2022-10-12T13:41:08.284Z,20.36
2022-10-12T13:43:45.749Z,20.24
2022-10-12T13:46:14.945Z,20.53
2022-10-12T13:49:05.951Z,20.46
2022-10-12T13:51:36.994Z,20.03
2022-10-12T13:54:14.673Z,20.41
2022-10-12T13:56:41.572Z,19.74
2022-10-12T13:59:18.838Z,20.66
2022-10-12T14:05:22.335Z,21.11
2022-10-12T14:07:51.540Z,21.01
2022-10-12T14:10:26.372Z,20.80
2022-10-12T14:12:54.033Z,20.89
2022-10-12T14:15:22.079Z,20.82
2022-10-12T14:17:52.794Z,20.92
2022-10-12T14:20:38.225Z,20.80
2022-10-12T14:23:13.510Z,21.11
2022-10-12T14:25:51.241Z,21.20
2022-10-12T14:28:30.986Z,20.96
2022-10-12T14:30:57.391Z,20.95
2022-10-12T14:33:52.522Z,20.83
2022-10-12T14:36:22.202Z,20.94
2022-10-12T14:38:50.246Z,20.21
2022-10-12T14:41:38.114Z,20.81
2022-10-12T14:44:13.507Z,20.71
2022-10-12T14:46:42.810Z,20.56
2022-10-12T14:49:18.720Z,20.55
2022-10-12T14:51:45.533Z,20.51
2022-10-12T14:54:12.306Z,20.21
2022-10-12T14:56:39.403Z,20.42
2022-10-12T14:59:05.798Z,20.26
2022-10-12T15:01:32.227Z,19.95
2022-10-12T15:03:58.591Z,19.43
2022-10-12T15:06:25.060Z,19.69
2022-10-12T15:08:52.445Z,19.76
2022-10-12T15:11:19.118Z,19.35
2022-10-12T15:13:45.605Z,20.03
2022-10-12T15:16:20.469Z,20.15
2022-10-12T15:18:47.173Z,20.11
2022-10-12T15:21:13.613Z,19.88
2022-10-12T15:23:40.140Z,19.57
2022-10-12T15:26:06.722Z,19.97
2022-10-12T15:28:33.187Z,19.78
2022-10-12T15:31:16.905Z,19.70
2022-10-12T15:33:44.479Z,19.41
2022-10-12T15:36:11.076Z,19.10
2022-10-12T15:38:37.536Z,18.79
2022-10-12T15:41:04.749Z,19.32
2022-10-12T15:43:32.980Z,19.32
2022-10-12T15:46:01.242Z,19.03
2022-10-12T15:48:28.286Z,18.91
2022-10-12T15:50:54.799Z,18.92
2022-10-12T15:53:25.501Z,19.28
2022-10-12T15:55:54.041Z,19.00
2022-10-12T15:58:21.540Z,19.08
2022-10-12T16:00:48.255Z,19.29
2022-10-12T16:03:19.177Z,19.23
2022-10-12T16:05:49.122Z,19.17
2022-10-12T16:08:15.491Z,18.98
2022-10-12T16:10:42.632Z,19.12
2022-10-12T16:13:12.903Z,19.01
2022-10-12T16:15:39.644Z,18.89
2022-10-12T16:18:06.713Z,18.92
2022-10-12T16:20:37.059Z,18.75
2022-10-12T16:23:06.467Z,18.96
2022-10-12T16:25:34.447Z,18.76
2022-10-12T16:28:00.796Z,18.45
2022-10-12T16:30:27.464Z,18.52
2022-10-12T16:32:54.481Z,17.68
2022-10-12T16:35:21.254Z,18.67
2022-10-12T16:37:47.599Z,18.26
2022-10-12T16:40:15.713Z,18.02
2022-10-12T16:42:42.792Z,18.47
2022-10-12T16:45:09.788Z,18.43
2022-10-12T16:47:40.482Z,18.21
2022-10-12T16:50:09.487Z,18.21
2022-10-12T16:52:35.861Z,18.00
2022-10-12T16:55:02.284Z,17.59
2022-10-12T16:57:28.698Z,17.56
2022-10-12T16:59:55.121Z,18.10
2022-10-12T17:02:21.590Z,17.93
2022-10-12T17:04:47.991Z,17.85
2022-10-12T17:07:15.054Z,17.75
2022-10-12T17:09:41.639Z,17.66
2022-10-12T17:12:08.299Z,17.93
2022-10-12T17:14:34.706Z,17.83
2022-10-12T17:17:01.351Z,17.79
2022-10-12T17:19:32.990Z,17.84
2022-10-12T17:22:00.900Z,17.52
2022-10-12T17:24:29.159Z,17.56
2022-10-12T17:26:56.437Z,17.40
2022-10-12T17:29:25.162Z,17.46
2022-10-12T17:31:53.000Z,17.24
2022-10-12T17:34:28.591Z,17.16
2022-10-12T17:36:56.553Z,17.30
2022-10-12T17:39:24.261Z,17.17
2022-10-12T17:41:50.822Z,17.30
2022-10-12T17:44:17.269Z,17.23
2022-10-12T17:46:51.137Z,17.26
2022-10-12T17:49:24.235Z,17.23
2022-10-12T17:51:51.190Z,17.21
2022-10-12T17:54:19.107Z,16.84
2022-10-12T17:56:45.750Z,16.61
2022-10-12T17:59:15.034Z,16.92
2022-10-12T18:01:41.613Z,16.78
2022-10-12T18:04:08.733Z,16.65
2022-10-12T18:06:35.098Z,16.89
2022-10-12T18:09:04.398Z,16.83
2022-10-12T18:11:31.078Z,16.79
2022-10-12T18:13:57.711Z,16.66
2022-10-12T18:16:26.847Z,16.22
2022-10-12T18:18:54.720Z,16.43
2022-10-12T18:21:23.931Z,16.54
2022-10-12T18:23:51.002Z,16.46
2022-10-12T18:26:22.048Z,16.51
2022-10-12T18:28:55.469Z,16.58
2022-10-12T18:31:24.458Z,16.45
2022-10-12T18:33:51.349Z,16.20
2022-10-12T18:36:18.670Z,16.15
2022-10-12T18:38:45.139Z,16.11
2022-10-12T18:41:15.241Z,16.20
2022-10-12T18:43:41.732Z,15.99
2022-10-12T18:46:10.887Z,15.98
2022-10-12T18:48:37.580Z,15.71
2022-10-12T18:51:15.302Z,15.74
2022-10-12T18:53:41.962Z,15.63
2022-10-12T18:56:09.804Z,15.71
2022-10-12T18:58:38.117Z,15.85
2022-10-12T19:01:23.391Z,15.88
2022-10-12T19:03:50.856Z,15.60
2022-10-12T19:06:26.242Z,15.64
2022-10-12T19:08:55.273Z,15.63
2022-10-12T19:11:23.134Z,15.70
2022-10-12T19:14:03.988Z,15.55
2022-10-12T19:16:32.127Z,15.55
2022-10-12T19:19:04.816Z,15.66
2022-10-12T19:21:31.485Z,15.45
2022-10-12T19:23:58.117Z,14.60
2022-10-12T19:26:27.417Z,14.65
2022-10-12T19:28:55.466Z,14.28
2022-10-12T19:31:25.923Z,15.30
2022-10-12T19:33:58.137Z,15.33
2022-10-12T19:36:24.974Z,15.03
2022-10-12T19:38:51.307Z,15.01
2022-10-12T19:41:17.641Z,14.92
2022-10-12T19:43:44.099Z,15.04
2022-10-12T19:46:12.533Z,15.07
2022-10-12T19:48:41.895Z,14.69
2022-10-12T19:51:11.665Z,15.21
2022-10-12T19:53:39.048Z,15.06
2022-10-12T19:56:10.561Z,14.98
2022-10-12T19:58:37.690Z,14.89
2022-10-12T20:01:10.528Z,14.87
2022-10-12T20:03:37.323Z,14.37
2022-10-12T20:06:07.758Z,14.73
2022-10-12T20:08:34.521Z,14.78
2022-10-12T20:11:00.875Z,14.80
2022-10-12T20:13:27.288Z,14.50
2022-10-12T20:15:54.866Z,14.54
2022-10-12T20:18:21.639Z,14.07
2022-10-12T20:20:48.424Z,13.71
2022-10-12T20:23:15.263Z,14.18
2022-10-12T20:25:52.947Z,13.75
2022-10-12T20:28:19.927Z,14.09
2022-10-12T20:30:47.221Z,14.16
2022-10-12T20:33:14.151Z,14.18
2022-10-12T20:35:48.034Z,14.21
2022-10-12T20:38:14.988Z,14.21
2022-10-12T20:40:41.358Z,14.56
2022-10-12T20:43:08.195Z,14.34
2022-10-12T20:45:35.873Z,14.36
2022-10-12T20:48:02.567Z,14.52
2022-10-12T20:50:28.968Z,14.27
2022-10-12T20:52:55.343Z,14.18
2022-10-12T20:55:22.167Z,13.79
2022-10-12T20:57:48.603Z,13.99
2022-10-12T21:00:15.192Z,14.09
2022-10-12T21:02:41.625Z,14.13
2022-10-12T21:05:08.644Z,13.80
2022-10-12T21:07:35.624Z,13.81
2022-10-12T21:10:02.112Z,13.85
2022-10-12T21:12:28.443Z,13.67
2022-10-12T21:14:54.809Z,14.00
2022-10-12T21:17:21.125Z,13.80
2022-10-12T21:19:47.498Z,14.10
2022-10-12T21:22:13.845Z,13.99
2022-10-12T21:24:40.149Z,13.32
2022-10-12T21:27:06.484Z,13.50
2022-10-12T21:29:32.798Z,14.08
2022-10-12T21:31:59.136Z,13.87
2022-10-12T21:34:25.591Z,13.17
2022-10-12T21:36:52.087Z,13.21
2022-10-12T21:39:18.559Z,13.22
2022-10-12T21:41:44.955Z,13.80
2022-10-12T21:44:12.117Z,13.70
2022-10-12T21:46:38.632Z,13.76
2022-10-12T21:49:07.812Z,13.90
2022-10-12T21:51:36.504Z,14.03
2022-10-12T21:54:04.234Z,13.91
2022-10-12T21:56:32.612Z,13.59
2022-10-12T21:59:00.401Z,13.88
2022-10-12T22:01:29.467Z,13.89
2022-10-12T22:03:58.213Z,13.32
2022-10-12T22:06:26.475Z,13.58
2022-10-12T22:08:58.324Z,12.87
2022-10-12T22:11:27.089Z,13.68
2022-10-12T22:13:59.114Z,13.37
2022-10-12T22:16:25.630Z,13.42
2022-10-12T22:18:52.014Z,12.77
2022-10-12T22:21:19.009Z,13.04
2022-10-12T22:23:45.917Z,13.70
2022-10-12T22:26:16.701Z,13.45
2022-10-12T22:28:43.716Z,12.95
2022-10-12T22:31:12.667Z,13.09
2022-10-12T22:33:39.022Z,13.84
2022-10-12T22:36:07.299Z,13.62
2022-10-12T22:38:34.969Z,13.70
2022-10-12T22:41:03.316Z,13.79
2022-10-12T22:43:30.655Z,12.86
2022-10-12T22:45:57.189Z,13.09
2022-10-12T22:48:24.456Z,13.72
2022-10-12T22:50:51.681Z,13.87
2022-10-12T22:53:20.410Z,13.64
2022-10-12T22:55:48.099Z,13.90
2022-10-12T22:58:15.034Z,13.82
2022-10-12T23:00:41.718Z,13.98
2022-10-12T23:03:08.058Z,13.57
2022-10-12T23:05:34.400Z,13.77
2022-10-12T23:08:00.808Z,13.31
2022-10-12T23:10:27.180Z,13.76
2022-10-12T23:12:53.632Z,13.76
2022-10-12T23:15:20.058Z,13.79
2022-10-12T23:17:46.387Z,13.88
2022-10-12T23:20:12.705Z,13.89
2022-10-12T23:22:39.079Z,13.92
2022-10-12T23:25:05.844Z,13.28
2022-10-12T23:27:32.205Z,13.68
2022-10-12T23:29:58.557Z,13.70
2022-10-12T23:32:24.944Z,13.71
2022-10-12T23:34:51.375Z,13.32
2022-10-12T23:37:17.756Z,13.79
2022-10-12T23:39:44.060Z,13.11
2022-10-12T23:42:10.447Z,13.84
2022-10-12T23:44:36.772Z,13.93
2022-10-12T23:47:03.185Z,12.99
2022-10-12T23:49:29.488Z,14.09
2022-10-12T23:51:55.799Z,13.01
2022-10-12T23:54:23.337Z,13.57
2022-10-12T23:56:49.663Z,13.97
2022-10-12T23:59:15.997Z,13.78
